Terminal Aerodrome Forecast
Issued by NWS North Platte, NE

Home | Current Version | Previous Version | Graphics & Text | Print | Product List | Glossary On
Versions: 1 2 3 4 5 6 7 8 9 10 11 12 13 14 15 16 17 18 19 20 21 22 23 24
000
FTUS43 KLBF 251300 AAB
TAFVTN
TAF AMD
KVTN 251359Z 2514/2612 05005KT P6SM VCSH OVC005
      TEMPO 2514/2516 5SM -SHRA BR
     FM251600 35005KT P6SM -SHRA SCT008 OVC015
     FM251800 VRB06KT P6SM VCTS BKN020CB=

USA.gov is the U.S. government's official web portal to all federal, state and local government web resources and services.